sensor_id;sensor_type;location;lat;lon;timestamp;P1;durP1;ratioP1;P2;durP2;ratioP2
928;SDS011;451;47.988;7.842;2023-02-21T00:03:16;4.10;;;3.80;;
928;SDS011;451;47.988;7.842;2023-02-21T00:12:37;5.57;;;3.60;;
928;SDS011;451;47.988;7.842;2023-02-21T00:21:58;3.13;;;2.90;;
928;SDS011;451;47.988;7.842;2023-02-21T00:31:19;3.10;;;2.90;;
928;SDS011;451;47.988;7.842;2023-02-21T00:40:40;4.10;;;3.80;;
928;SDS011;451;47.988;7.842;2023-02-21T00:50:01;3.30;;;2.77;;
928;SDS011;451;47.988;7.842;2023-02-21T00:59:22;3.07;;;2.73;;
928;SDS011;451;47.988;7.842;2023-02-21T01:08:43;2.80;;;2.60;;
928;SDS011;451;47.988;7.842;2023-02-21T01:18:07;3.23;;;3.03;;
928;SDS011;451;47.988;7.842;2023-02-21T01:27:27;3.13;;;2.93;;
928;SDS011;451;47.988;7.842;2023-02-21T01:36:51;2.40;;;2.30;;
928;SDS011;451;47.988;7.842;2023-02-21T01:46:12;2.60;;;2.17;;
928;SDS011;451;47.988;7.842;2023-02-21T01:55:35;2.80;;;2.43;;
928;SDS011;451;47.988;7.842;2023-02-21T02:04:58;2.93;;;2.60;;
928;SDS011;451;47.988;7.842;2023-02-21T02:14:31;3.83;;;3.03;;
928;SDS011;451;47.988;7.842;2023-02-21T02:23:59;2.47;;;2.27;;
928;SDS011;451;47.988;7.842;2023-02-21T02:33:37;2.90;;;2.30;;
928;SDS011;451;47.988;7.842;2023-02-21T02:43:02;2.27;;;2.07;;
928;SDS011;451;47.988;7.842;2023-02-21T02:52:18;3.00;;;2.77;;
928;SDS011;451;47.988;7.842;2023-02-21T03:01:37;3.13;;;2.60;;
928;SDS011;451;47.988;7.842;2023-02-21T03:10:57;2.60;;;2.40;;
928;SDS011;451;47.988;7.842;2023-02-21T03:20:11;2.57;;;2.37;;
928;SDS011;451;47.988;7.842;2023-02-21T03:29:16;3.20;;;2.70;;
928;SDS011;451;47.988;7.842;2023-02-21T03:38:23;3.13;;;2.63;;
928;SDS011;451;47.988;7.842;2023-02-21T03:47:29;2.70;;;2.30;;
928;SDS011;451;47.988;7.842;2023-02-21T03:56:33;2.40;;;2.20;;
928;SDS011;451;47.988;7.842;2023-02-21T04:05:46;2.73;;;2.53;;
928;SDS011;451;47.988;7.842;2023-02-21T04:14:50;3.90;;;2.43;;
928;SDS011;451;47.988;7.842;2023-02-21T04:23:53;3.30;;;3.00;;
928;SDS011;451;47.988;7.842;2023-02-21T04:33:01;2.47;;;2.27;;
928;SDS011;451;47.988;7.842;2023-02-21T04:42:04;4.33;;;2.90;;
928;SDS011;451;47.988;7.842;2023-02-21T04:51:09;2.90;;;2.70;;
928;SDS011;451;47.988;7.842;2023-02-21T05:00:12;3.20;;;3.00;;
928;SDS011;451;47.988;7.842;2023-02-21T05:09:18;2.87;;;2.63;;
928;SDS011;451;47.988;7.842;2023-02-21T05:18:21;4.00;;;2.60;;
928;SDS011;451;47.988;7.842;2023-02-21T05:27:28;4.73;;;3.87;;
928;SDS011;451;47.988;7.842;2023-02-21T05:36:31;3.73;;;3.33;;
928;SDS011;451;47.988;7.842;2023-02-21T05:45:35;4.33;;;4.03;;
928;SDS011;451;47.988;7.842;2023-02-21T05:54:38;3.73;;;3.40;;
928;SDS011;451;47.988;7.842;2023-02-21T06:03:42;4.20;;;3.90;;
928;SDS011;451;47.988;7.842;2023-02-21T06:12:45;11.03;;;3.87;;
928;SDS011;451;47.988;7.842;2023-02-21T06:21:50;4.10;;;3.80;;
928;SDS011;451;47.988;7.842;2023-02-21T06:30:53;3.63;;;3.25;;
928;SDS011;451;47.988;7.842;2023-02-21T06:39:57;4.40;;;4.00;;
928;SDS011;451;47.988;7.842;2023-02-21T06:49:00;4.43;;;4.03;;
928;SDS011;451;47.988;7.842;2023-02-21T06:58:05;5.87;;;4.90;;
928;SDS011;451;47.988;7.842;2023-02-21T07:07:08;14.70;;;8.00;;
928;SDS011;451;47.988;7.842;2023-02-21T07:16:12;6.10;;;4.20;;
928;SDS011;451;47.988;7.842;2023-02-21T07:25:17;5.23;;;4.73;;
928;SDS011;451;47.988;7.842;2023-02-21T07:34:23;7.80;;;4.87;;
928;SDS011;451;47.988;7.842;2023-02-21T07:43:26;4.43;;;4.03;;
928;SDS011;451;47.988;7.842;2023-02-21T07:52:31;5.27;;;4.80;;
928;SDS011;451;47.988;7.842;2023-02-21T08:01:34;6.53;;;5.33;;
928;SDS011;451;47.988;7.842;2023-02-21T08:10:38;5.53;;;5.03;;
928;SDS011;451;47.988;7.842;2023-02-21T08:19:41;7.07;;;5.60;;
928;SDS011;451;47.988;7.842;2023-02-21T08:28:46;6.43;;;5.80;;
928;SDS011;451;47.988;7.842;2023-02-21T08:37:49;6.30;;;5.70;;
928;SDS011;451;47.988;7.842;2023-02-21T08:46:58;6.40;;;5.30;;
928;SDS011;451;47.988;7.842;2023-02-21T08:56:01;9.60;;;6.97;;
928;SDS011;451;47.988;7.842;2023-02-21T09:05:07;6.50;;;5.00;;
928;SDS011;451;47.988;7.842;2023-02-21T09:14:12;5.47;;;4.30;;
928;SDS011;451;47.988;7.842;2023-02-21T09:23:17;4.73;;;4.23;;
928;SDS011;451;47.988;7.842;2023-02-21T09:32:21;10.33;;;5.00;;
928;SDS011;451;47.988;7.842;2023-02-21T09:41:25;7.77;;;7.07;;
928;SDS011;451;47.988;7.842;2023-02-21T09:50:32;11.37;;;8.53;;
928;SDS011;451;47.988;7.842;2023-02-21T09:59:42;9.80;;;8.37;;
928;SDS011;451;47.988;7.842;2023-02-21T10:08:47;10.00;;;8.40;;
928;SDS011;451;47.988;7.842;2023-02-21T10:17:56;9.97;;;7.20;;
928;SDS011;451;47.988;7.842;2023-02-21T10:27:07;11.00;;;8.40;;
928;SDS011;451;47.988;7.842;2023-02-21T10:36:19;10.47;;;8.87;;
928;SDS011;451;47.988;7.842;2023-02-21T10:45:25;9.93;;;8.77;;
928;SDS011;451;47.988;7.842;2023-02-21T10:54:35;10.80;;;8.50;;
928;SDS011;451;47.988;7.842;2023-02-21T11:03:41;6.90;;;6.20;;
928;SDS011;451;47.988;7.842;2023-02-21T11:12:47;7.90;;;5.70;;
928;SDS011;451;47.988;7.842;2023-02-21T11:22:03;7.13;;;6.43;;
928;SDS011;451;47.988;7.842;2023-02-21T11:31:11;13.60;;;5.37;;
928;SDS011;451;47.988;7.842;2023-02-21T11:49:47;6.90;;;5.87;;
928;SDS011;451;47.988;7.842;2023-02-21T11:58:57;6.40;;;5.80;;
928;SDS011;451;47.988;7.842;2023-02-21T12:08:26;7.10;;;6.50;;
928;SDS011;451;47.988;7.842;2023-02-21T12:17:44;6.67;;;5.90;;
928;SDS011;451;47.988;7.842;2023-02-21T12:27:02;5.53;;;5.00;;
928;SDS011;451;47.988;7.842;2023-02-21T12:45:42;4.77;;;4.37;;
928;SDS011;451;47.988;7.842;2023-02-21T12:54:57;6.13;;;3.87;;
928;SDS011;451;47.988;7.842;2023-02-21T13:04:09;3.20;;;3.00;;
928;SDS011;451;47.988;7.842;2023-02-21T13:13:20;5.40;;;2.73;;
928;SDS011;451;47.988;7.842;2023-02-21T13:32:26;4.00;;;3.70;;
928;SDS011;451;47.988;7.842;2023-02-21T13:41:32;6.23;;;4.50;;
928;SDS011;451;47.988;7.842;2023-02-21T13:50:44;5.00;;;3.73;;
928;SDS011;451;47.988;7.842;2023-02-21T13:59:49;5.70;;;4.27;;
928;SDS011;451;47.988;7.842;2023-02-21T14:08:54;4.30;;;3.90;;
928;SDS011;451;47.988;7.842;2023-02-21T14:18:01;6.70;;;4.07;;
928;SDS011;451;47.988;7.842;2023-02-21T14:27:29;3.77;;;3.47;;
928;SDS011;451;47.988;7.842;2023-02-21T14:36:35;3.80;;;3.50;;
928;SDS011;451;47.988;7.842;2023-02-21T14:45:50;4.50;;;3.67;;
928;SDS011;451;47.988;7.842;2023-02-21T14:55:21;4.30;;;3.90;;
928;SDS011;451;47.988;7.842;2023-02-21T15:04:33;4.00;;;3.13;;
928;SDS011;451;47.988;7.842;2023-02-21T15:13:42;5.03;;;4.53;;
928;SDS011;451;47.988;7.842;2023-02-21T15:22:53;3.80;;;3.50;;
928;SDS011;451;47.988;7.842;2023-02-21T15:31:58;5.30;;;3.50;;
928;SDS011;451;47.988;7.842;2023-02-21T15:41:03;4.77;;;4.27;;
928;SDS011;451;47.988;7.842;2023-02-21T15:50:11;3.20;;;3.00;;
928;SDS011;451;47.988;7.842;2023-02-21T15:59:19;3.10;;;2.90;;
928;SDS011;451;47.988;7.842;2023-02-21T16:08:29;4.70;;;2.60;;
928;SDS011;451;47.988;7.842;2023-02-21T16:17:32;3.57;;;3.33;;
928;SDS011;451;47.988;7.842;2023-02-21T16:26:39;16.53;;;5.23;;
928;SDS011;451;47.988;7.842;2023-02-21T16:35:42;6.30;;;4.40;;
928;SDS011;451;47.988;7.842;2023-02-21T16:44:47;5.20;;;4.80;;
928;SDS011;451;47.988;7.842;2023-02-21T16:53:50;9.83;;;5.30;;
928;SDS011;451;47.988;7.842;2023-02-21T17:02:55;6.17;;;3.90;;
928;SDS011;451;47.988;7.842;2023-02-21T17:11:58;5.23;;;4.73;;
928;SDS011;451;47.988;7.842;2023-02-21T17:21:03;9.00;;;5.47;;
928;SDS011;451;47.988;7.842;2023-02-21T17:30:07;7.13;;;6.53;;
928;SDS011;451;47.988;7.842;2023-02-21T17:39:12;12.70;;;6.50;;
928;SDS011;451;47.988;7.842;2023-02-21T17:48:17;6.70;;;6.07;;
928;SDS011;451;47.988;7.842;2023-02-21T17:57:21;10.23;;;7.80;;
928;SDS011;451;47.988;7.842;2023-02-21T18:06:24;5.83;;;5.37;;
928;SDS011;451;47.988;7.842;2023-02-21T18:15:29;8.77;;;6.40;;
928;SDS011;451;47.988;7.842;2023-02-21T18:24:33;7.60;;;6.80;;
928;SDS011;451;47.988;7.842;2023-02-21T18:33:39;7.93;;;6.10;;
928;SDS011;451;47.988;7.842;2023-02-21T18:42:43;7.10;;;5.13;;
928;SDS011;451;47.988;7.842;2023-02-21T18:51:49;6.87;;;6.20;;
928;SDS011;451;47.988;7.842;2023-02-21T19:00:52;5.87;;;5.27;;
928;SDS011;451;47.988;7.842;2023-02-21T19:09:59;7.77;;;6.00;;
928;SDS011;451;47.988;7.842;2023-02-21T19:19:02;6.17;;;5.57;;
928;SDS011;451;47.988;7.842;2023-02-21T19:28:07;6.07;;;5.57;;
928;SDS011;451;47.988;7.842;2023-02-21T19:37:10;6.07;;;5.57;;
928;SDS011;451;47.988;7.842;2023-02-21T19:46:22;6.63;;;6.07;;
928;SDS011;451;47.988;7.842;2023-02-21T19:55:27;8.97;;;6.50;;
928;SDS011;451;47.988;7.842;2023-02-21T20:04:33;9.23;;;6.60;;
928;SDS011;451;47.988;7.842;2023-02-21T20:13:36;8.27;;;7.20;;
928;SDS011;451;47.988;7.842;2023-02-21T20:22:40;7.63;;;6.80;;
928;SDS011;451;47.988;7.842;2023-02-21T20:31:43;9.83;;;7.10;;
928;SDS011;451;47.988;7.842;2023-02-21T20:40:48;7.33;;;6.73;;
928;SDS011;451;47.988;7.842;2023-02-21T20:49:51;8.67;;;7.53;;
928;SDS011;451;47.988;7.842;2023-02-21T20:58:56;8.73;;;7.83;;
928;SDS011;451;47.988;7.842;2023-02-21T21:07:59;6.30;;;5.80;;
928;SDS011;451;47.988;7.842;2023-02-21T21:17:04;6.07;;;5.57;;
928;SDS011;451;47.988;7.842;2023-02-21T21:26:07;7.07;;;6.40;;
928;SDS011;451;47.988;7.842;2023-02-21T21:35:15;7.60;;;6.80;;
928;SDS011;451;47.988;7.842;2023-02-21T21:44:18;6.40;;;5.90;;
928;SDS011;451;47.988;7.842;2023-02-21T21:53:24;6.60;;;5.90;;
928;SDS011;451;47.988;7.842;2023-02-21T22:02:27;8.90;;;6.00;;
928;SDS011;451;47.988;7.842;2023-02-21T22:11:32;5.80;;;5.30;;
928;SDS011;451;47.988;7.842;2023-02-21T22:20:36;6.60;;;5.43;;
928;SDS011;451;47.988;7.842;2023-02-21T22:29:40;5.07;;;4.67;;
928;SDS011;451;47.988;7.842;2023-02-21T22:38:45;4.53;;;4.23;;
928;SDS011;451;47.988;7.842;2023-02-21T22:47:51;3.93;;;3.60;;
928;SDS011;451;47.988;7.842;2023-02-21T22:56:58;3.80;;;3.50;;
928;SDS011;451;47.988;7.842;2023-02-21T23:06:03;3.63;;;3.40;;
928;SDS011;451;47.988;7.842;2023-02-21T23:15:07;3.80;;;3.40;;
928;SDS011;451;47.988;7.842;2023-02-21T23:24:13;3.47;;;3.27;;
928;SDS011;451;47.988;7.842;2023-02-21T23:33:18;3.47;;;3.17;;
928;SDS011;451;47.988;7.842;2023-02-21T23:42:25;3.83;;;3.43;;
928;SDS011;451;47.988;7.842;2023-02-21T23:51:31;3.47;;;3.17;;
